Página principal
METAR-TAF:

METAR-TAF

Aeroportos :

Atenas, Grécia

Aeroporto Internacional de Atenas

latitude: 37-56N, longitude: 023-56E, altura: 94 m

Observação actual do tempo

O boletim foi feito há 30 minutos, às 23:20 UTC
Vento 5 kt de nor-noroeste
Temperatura 28°C
Humidade 28%
Pressão 1013 hPa
Visibilidade 10 km ou mais
sem nuvens abaixo de 1500 metros e sem cumulonimbus

METAR: LGAV 182320Z 34005KT CAVOK 28/08 Q1013 NOSIG

Hora: 02:50 (23:50 UTC)

Previsão

O boletim foi feito há 6 horas e 50 minutos, às 17:00 UTC
Previsão válida de 18 às 18 UTC a 19 às 18 UTC
Vento 15 kt de norte
Visibilidade 10 km ou mais
Poucas nuvensa uma altura de 2000 ft
Tornando-se
de 19 às 07 UTC a 19 às 09 UTC
Vento 15 kt de nor-nordeste com rajadas de 25 kt

TAF: LGAV 181700Z 1818/1918 36015KT 9999 FEW020 BECMG 1907/1909 02015G25KT

Observações e previsões do tempo de mais de 4000 aeroportos (mensagens METAR e TAF).

As estações disponíveis são os pontos amarelos e vermelhos sobre o mapa.

Mova o rato sobre o mapa para ver o nome da estação.

Depois clique no ponto para visualizar as observações e previsões meteorológicas.

Para alterar o mapa : clique nos botões verdes com uma cruz preta para aumentar o zoom; no botão verde com uma pitada de zoom; ou nas setas verdes para mapas adjacentes.


METAR-TAF: